sensor_id;sensor_type;location;lat;lon;timestamp;P1;durP1;ratioP1;P2;durP2;ratioP2
25419;SDS011;13354;48.174;11.566;2023-06-24T00:00:56;4.55;;;3.75;;
25419;SDS011;13354;48.174;11.566;2023-06-24T00:03:21;4.47;;;3.55;;
25419;SDS011;13354;48.174;11.566;2023-06-24T00:05:46;4.40;;;3.73;;
25419;SDS011;13354;48.174;11.566;2023-06-24T00:08:14;5.38;;;3.75;;
25419;SDS011;13354;48.174;11.566;2023-06-24T00:10:44;4.18;;;3.78;;
25419;SDS011;13354;48.174;11.566;2023-06-24T00:13:10;3.78;;;3.38;;
25419;SDS011;13354;48.174;11.566;2023-06-24T00:15:35;5.65;;;4.05;;
25419;SDS011;13354;48.174;11.566;2023-06-24T00:18:01;5.17;;;3.70;;
25419;SDS011;13354;48.174;11.566;2023-06-24T00:20:30;6.20;;;3.60;;
25419;SDS011;13354;48.174;11.566;2023-06-24T00:22:56;6.70;;;3.67;;
25419;SDS011;13354;48.174;11.566;2023-06-24T00:25:21;5.45;;;3.90;;
25419;SDS011;13354;48.174;11.566;2023-06-24T00:27:46;4.23;;;3.37;;
25419;SDS011;13354;48.174;11.566;2023-06-24T00:30:12;4.68;;;3.90;;
25419;SDS011;13354;48.174;11.566;2023-06-24T00:32:37;5.05;;;3.53;;
25419;SDS011;13354;48.174;11.566;2023-06-24T00:35:02;4.50;;;4.07;;
25419;SDS011;13354;48.174;11.566;2023-06-24T00:37:28;4.28;;;3.88;;
25419;SDS011;13354;48.174;11.566;2023-06-24T00:39:53;4.68;;;3.65;;
25419;SDS011;13354;48.174;11.566;2023-06-24T00:42:19;4.20;;;3.72;;
25419;SDS011;13354;48.174;11.566;2023-06-24T00:44:44;6.05;;;3.15;;
25419;SDS011;13354;48.174;11.566;2023-06-24T00:47:10;4.55;;;3.30;;
25419;SDS011;13354;48.174;11.566;2023-06-24T00:49:35;3.72;;;3.03;;
25419;SDS011;13354;48.174;11.566;2023-06-24T00:52:00;4.47;;;3.45;;
25419;SDS011;13354;48.174;11.566;2023-06-24T00:54:26;5.38;;;3.58;;
25419;SDS011;13354;48.174;11.566;2023-06-24T00:56:56;5.07;;;3.72;;
25419;SDS011;13354;48.174;11.566;2023-06-24T00:59:23;4.28;;;3.83;;
25419;SDS011;13354;48.174;11.566;2023-06-24T01:01:48;4.13;;;3.40;;
25419;SDS011;13354;48.174;11.566;2023-06-24T01:04:17;4.93;;;3.55;;
25419;SDS011;13354;48.174;11.566;2023-06-24T01:06:43;3.58;;;3.28;;
25419;SDS011;13354;48.174;11.566;2023-06-24T01:09:09;3.85;;;3.38;;
25419;SDS011;13354;48.174;11.566;2023-06-24T01:11:34;4.78;;;3.78;;
25419;SDS011;13354;48.174;11.566;2023-06-24T01:14:00;4.25;;;3.65;;
25419;SDS011;13354;48.174;11.566;2023-06-24T01:18:55;4.10;;;3.55;;
25419;SDS011;13354;48.174;11.566;2023-06-24T01:21:33;3.60;;;3.30;;
25419;SDS011;13354;48.174;11.566;2023-06-24T01:24:23;4.25;;;3.45;;
25419;SDS011;13354;48.174;11.566;2023-06-24T01:32:42;3.58;;;3.28;;
25419;SDS011;13354;48.174;11.566;2023-06-24T01:35:14;4.53;;;3.55;;
25419;SDS011;13354;48.174;11.566;2023-06-24T01:37:47;4.88;;;3.42;;
25419;SDS011;13354;48.174;11.566;2023-06-24T01:42:58;5.68;;;3.40;;
25419;SDS011;13354;48.174;11.566;2023-06-24T01:45:30;3.80;;;3.13;;
25419;SDS011;13354;48.174;11.566;2023-06-24T01:48:04;3.58;;;3.28;;
25419;SDS011;13354;48.174;11.566;2023-06-24T01:50:34;3.42;;;3.10;;
25419;SDS011;13354;48.174;11.566;2023-06-24T01:53:01;4.03;;;3.38;;
25419;SDS011;13354;48.174;11.566;2023-06-24T01:55:31;4.25;;;3.10;;
25419;SDS011;13354;48.174;11.566;2023-06-24T01:57:57;4.35;;;3.28;;
25419;SDS011;13354;48.174;11.566;2023-06-24T02:00:24;4.18;;;3.70;;
25419;SDS011;13354;48.174;11.566;2023-06-24T02:02:51;4.78;;;3.38;;
25419;SDS011;13354;48.174;11.566;2023-06-24T02:05:18;4.05;;;3.58;;
25419;SDS011;13354;48.174;11.566;2023-06-24T02:07:46;3.58;;;3.15;;
25419;SDS011;13354;48.174;11.566;2023-06-24T02:10:13;5.55;;;3.50;;
25419;SDS011;13354;48.174;11.566;2023-06-24T02:12:39;3.65;;;3.20;;
25419;SDS011;13354;48.174;11.566;2023-06-24T02:15:06;3.72;;;3.33;;
25419;SDS011;13354;48.174;11.566;2023-06-24T02:17:33;3.50;;;3.20;;
25419;SDS011;13354;48.174;11.566;2023-06-24T02:19:59;4.38;;;3.53;;
25419;SDS011;13354;48.174;11.566;2023-06-24T02:22:25;3.30;;;3.00;;
25419;SDS011;13354;48.174;11.566;2023-06-24T02:24:52;4.20;;;3.63;;
25419;SDS011;13354;48.174;11.566;2023-06-24T02:27:18;4.15;;;3.17;;
25419;SDS011;13354;48.174;11.566;2023-06-24T02:29:44;5.80;;;3.60;;
25419;SDS011;13354;48.174;11.566;2023-06-24T02:32:11;4.18;;;3.15;;
25419;SDS011;13354;48.174;11.566;2023-06-24T02:34:36;6.53;;;3.65;;
25419;SDS011;13354;48.174;11.566;2023-06-24T02:37:02;4.47;;;3.50;;
25419;SDS011;13354;48.174;11.566;2023-06-24T02:39:27;5.00;;;3.60;;
25419;SDS011;13354;48.174;11.566;2023-06-24T02:41:53;4.30;;;3.20;;
25419;SDS011;13354;48.174;11.566;2023-06-24T02:44:18;4.55;;;3.45;;
25419;SDS011;13354;48.174;11.566;2023-06-24T02:46:43;5.20;;;3.40;;
25419;SDS011;13354;48.174;11.566;2023-06-24T02:49:11;3.38;;;3.08;;
25419;SDS011;13354;48.174;11.566;2023-06-24T02:51:39;3.92;;;2.92;;
25419;SDS011;13354;48.174;11.566;2023-06-24T02:54:05;4.03;;;3.28;;
25419;SDS011;13354;48.174;11.566;2023-06-24T02:56:32;3.53;;;3.08;;
25419;SDS011;13354;48.174;11.566;2023-06-24T02:58:57;4.07;;;3.58;;
25419;SDS011;13354;48.174;11.566;2023-06-24T03:01:23;4.68;;;3.38;;
25419;SDS011;13354;48.174;11.566;2023-06-24T03:03:54;4.45;;;2.95;;
25419;SDS011;13354;48.174;11.566;2023-06-24T03:06:20;3.67;;;3.30;;
25419;SDS011;13354;48.174;11.566;2023-06-24T03:08:45;4.18;;;3.63;;
25419;SDS011;13354;48.174;11.566;2023-06-24T03:11:14;4.25;;;3.45;;
25419;SDS011;13354;48.174;11.566;2023-06-24T03:13:40;3.65;;;3.28;;
25419;SDS011;13354;48.174;11.566;2023-06-24T03:16:06;4.18;;;3.30;;
25419;SDS011;13354;48.174;11.566;2023-06-24T03:18:46;6.07;;;3.60;;
25419;SDS011;13354;48.174;11.566;2023-06-24T03:21:11;3.90;;;3.20;;
25419;SDS011;13354;48.174;11.566;2023-06-24T03:23:36;4.25;;;3.50;;
25419;SDS011;13354;48.174;11.566;2023-06-24T03:26:02;4.07;;;3.60;;
25419;SDS011;13354;48.174;11.566;2023-06-24T03:28:30;4.35;;;3.17;;
25419;SDS011;13354;48.174;11.566;2023-06-24T03:30:56;3.90;;;3.13;;
25419;SDS011;13354;48.174;11.566;2023-06-24T03:33:23;4.40;;;3.85;;
25419;SDS011;13354;48.174;11.566;2023-06-24T03:35:49;4.50;;;3.60;;
25419;SDS011;13354;48.174;11.566;2023-06-24T03:38:15;3.50;;;3.20;;
25419;SDS011;13354;48.174;11.566;2023-06-24T03:40:40;5.30;;;3.40;;
25419;SDS011;13354;48.174;11.566;2023-06-24T03:43:05;5.22;;;3.42;;
25419;SDS011;13354;48.174;11.566;2023-06-24T03:45:31;4.43;;;3.17;;
25419;SDS011;13354;48.174;11.566;2023-06-24T03:47:56;3.42;;;3.13;;
25419;SDS011;13354;48.174;11.566;2023-06-24T03:50:21;4.33;;;3.53;;
25419;SDS011;13354;48.174;11.566;2023-06-24T03:52:46;3.17;;;2.87;;
25419;SDS011;13354;48.174;11.566;2023-06-24T03:55:12;3.70;;;3.25;;
25419;SDS011;13354;48.174;11.566;2023-06-24T03:57:37;3.40;;;3.10;;
25419;SDS011;13354;48.174;11.566;2023-06-24T04:00:02;3.75;;;3.17;;
25419;SDS011;13354;48.174;11.566;2023-06-24T04:02:39;5.65;;;3.58;;
25419;SDS011;13354;48.174;11.566;2023-06-24T04:05:07;3.58;;;3.15;;
25419;SDS011;13354;48.174;11.566;2023-06-24T04:07:32;4.38;;;3.08;;
25419;SDS011;13354;48.174;11.566;2023-06-24T04:09:57;4.10;;;3.37;;
25419;SDS011;13354;48.174;11.566;2023-06-24T04:12:23;5.35;;;3.08;;
25419;SDS011;13354;48.174;11.566;2023-06-24T04:14:49;3.63;;;3.25;;
25419;SDS011;13354;48.174;11.566;2023-06-24T04:17:14;3.53;;;3.22;;
25419;SDS011;13354;48.174;11.566;2023-06-24T04:19:40;3.38;;;3.08;;
25419;SDS011;13354;48.174;11.566;2023-06-24T04:22:05;3.40;;;3.10;;
25419;SDS011;13354;48.174;11.566;2023-06-24T04:24:31;4.43;;;3.37;;
25419;SDS011;13354;48.174;11.566;2023-06-24T04:26:56;4.63;;;3.05;;
25419;SDS011;13354;48.174;11.566;2023-06-24T04:29:22;2.92;;;2.67;;
25419;SDS011;13354;48.174;11.566;2023-06-24T04:31:48;4.15;;;3.13;;
25419;SDS011;13354;48.174;11.566;2023-06-24T04:34:13;3.30;;;3.00;;
25419;SDS011;13354;48.174;11.566;2023-06-24T04:36:38;6.78;;;3.33;;
25419;SDS011;13354;48.174;11.566;2023-06-24T04:39:04;4.72;;;3.33;;
25419;SDS011;13354;48.174;11.566;2023-06-24T04:41:29;3.83;;;3.38;;
25419;SDS011;13354;48.174;11.566;2023-06-24T04:43:54;3.53;;;3.13;;
25419;SDS011;13354;48.174;11.566;2023-06-24T04:46:20;4.28;;;3.30;;
25419;SDS011;13354;48.174;11.566;2023-06-24T04:48:45;4.43;;;3.42;;
25419;SDS011;13354;48.174;11.566;2023-06-24T04:51:10;5.60;;;3.60;;
25419;SDS011;13354;48.174;11.566;2023-06-24T04:53:35;3.92;;;3.35;;
25419;SDS011;13354;48.174;11.566;2023-06-24T04:56:01;5.50;;;3.23;;
25419;SDS011;13354;48.174;11.566;2023-06-24T04:58:26;3.88;;;3.42;;
25419;SDS011;13354;48.174;11.566;2023-06-24T05:00:51;3.40;;;3.10;;
25419;SDS011;13354;48.174;11.566;2023-06-24T05:03:18;3.35;;;3.03;;
25419;SDS011;13354;48.174;11.566;2023-06-24T05:05:44;5.10;;;3.03;;
25419;SDS011;13354;48.174;11.566;2023-06-24T05:08:09;4.23;;;3.30;;
25419;SDS011;13354;48.174;11.566;2023-06-24T05:10:34;5.67;;;3.07;;
25419;SDS011;13354;48.174;11.566;2023-06-24T05:12:59;3.90;;;3.30;;
25419;SDS011;13354;48.174;11.566;2023-06-24T05:15:25;5.07;;;3.17;;
25419;SDS011;13354;48.174;11.566;2023-06-24T05:17:50;4.73;;;2.93;;
25419;SDS011;13354;48.174;11.566;2023-06-24T05:20:15;5.23;;;3.10;;
25419;SDS011;13354;48.174;11.566;2023-06-24T05:22:42;3.13;;;2.80;;
25419;SDS011;13354;48.174;11.566;2023-06-24T05:25:08;5.30;;;3.40;;
25419;SDS011;13354;48.174;11.566;2023-06-24T05:27:34;4.60;;;3.13;;
25419;SDS011;13354;48.174;11.566;2023-06-24T05:29:59;3.85;;;3.45;;
25419;SDS011;13354;48.174;11.566;2023-06-24T05:32:24;4.47;;;3.30;;
25419;SDS011;13354;48.174;11.566;2023-06-24T05:34:49;3.53;;;3.23;;
25419;SDS011;13354;48.174;11.566;2023-06-24T05:37:15;5.88;;;3.20;;
25419;SDS011;13354;48.174;11.566;2023-06-24T05:39:40;4.00;;;3.15;;
25419;SDS011;13354;48.174;11.566;2023-06-24T05:42:05;4.22;;;3.15;;
25419;SDS011;13354;48.174;11.566;2023-06-24T05:44:31;4.60;;;3.15;;
25419;SDS011;13354;48.174;11.566;2023-06-24T05:46:56;3.55;;;2.88;;
25419;SDS011;13354;48.174;11.566;2023-06-24T05:49:21;3.40;;;2.90;;
25419;SDS011;13354;48.174;11.566;2023-06-24T05:51:47;3.25;;;2.75;;
25419;SDS011;13354;48.174;11.566;2023-06-24T05:54:12;3.05;;;2.63;;
25419;SDS011;13354;48.174;11.566;2023-06-24T05:56:37;3.80;;;2.97;;
25419;SDS011;13354;48.174;11.566;2023-06-24T05:59:03;3.60;;;3.10;;
25419;SDS011;13354;48.174;11.566;2023-06-24T06:01:28;3.65;;;3.10;;
25419;SDS011;13354;48.174;11.566;2023-06-24T06:03:54;3.67;;;2.78;;
25419;SDS011;13354;48.174;11.566;2023-06-24T06:06:19;4.88;;;2.97;;
25419;SDS011;13354;48.174;11.566;2023-06-24T06:08:44;4.60;;;3.17;;
25419;SDS011;13354;48.174;11.566;2023-06-24T06:11:09;3.38;;;3.08;;
25419;SDS011;13354;48.174;11.566;2023-06-24T06:13:35;4.47;;;3.42;;
25419;SDS011;13354;48.174;11.566;2023-06-24T06:16:00;5.43;;;2.83;;
25419;SDS011;13354;48.174;11.566;2023-06-24T06:18:25;3.83;;;3.17;;
25419;SDS011;13354;48.174;11.566;2023-06-24T06:20:51;3.93;;;3.27;;
25419;SDS011;13354;48.174;11.566;2023-06-24T06:23:16;3.92;;;3.13;;
25419;SDS011;13354;48.174;11.566;2023-06-24T06:25:42;4.70;;;3.22;;
25419;SDS011;13354;48.174;11.566;2023-06-24T06:28:07;4.68;;;3.10;;
25419;SDS011;13354;48.174;11.566;2023-06-24T06:30:33;3.22;;;2.75;;
25419;SDS011;13354;48.174;11.566;2023-06-24T06:32:58;3.43;;;3.03;;
25419;SDS011;13354;48.174;11.566;2023-06-24T06:35:23;3.70;;;3.10;;
25419;SDS011;13354;48.174;11.566;2023-06-24T06:37:49;3.43;;;3.13;;
25419;SDS011;13354;48.174;11.566;2023-06-24T06:40:21;4.25;;;2.90;;
25419;SDS011;13354;48.174;11.566;2023-06-24T06:42:46;3.65;;;2.95;;
25419;SDS011;13354;48.174;11.566;2023-06-24T06:45:12;3.20;;;2.90;;
25419;SDS011;13354;48.174;11.566;2023-06-24T06:47:37;3.22;;;2.50;;
25419;SDS011;13354;48.174;11.566;2023-06-24T06:50:02;3.63;;;2.78;;
25419;SDS011;13354;48.174;11.566;2023-06-24T06:52:28;2.72;;;2.30;;
25419;SDS011;13354;48.174;11.566;2023-06-24T06:54:54;3.45;;;2.33;;
25419;SDS011;13354;48.174;11.566;2023-06-24T06:57:19;2.92;;;2.47;;
25419;SDS011;13354;48.174;11.566;2023-06-24T06:59:45;3.95;;;2.42;;
25419;SDS011;13354;48.174;11.566;2023-06-24T07:02:10;3.03;;;2.50;;
25419;SDS011;13354;48.174;11.566;2023-06-24T07:04:35;3.10;;;2.45;;
25419;SDS011;13354;48.174;11.566;2023-06-24T07:07:01;2.30;;;2.10;;
25419;SDS011;13354;48.174;11.566;2023-06-24T07:09:26;3.00;;;2.20;;
25419;SDS011;13354;48.174;11.566;2023-06-24T07:11:51;4.55;;;2.53;;
25419;SDS011;13354;48.174;11.566;2023-06-24T07:14:17;2.97;;;2.47;;
25419;SDS011;13354;48.174;11.566;2023-06-24T07:16:42;5.93;;;4.15;;
25419;SDS011;13354;48.174;11.566;2023-06-24T07:19:07;4.18;;;3.30;;
25419;SDS011;13354;48.174;11.566;2023-06-24T07:21:33;3.50;;;3.00;;
25419;SDS011;13354;48.174;11.566;2023-06-24T07:23:58;3.45;;;2.67;;
25419;SDS011;13354;48.174;11.566;2023-06-24T07:26:23;2.80;;;2.30;;
25419;SDS011;13354;48.174;11.566;2023-06-24T07:28:48;3.42;;;2.38;;
25419;SDS011;13354;48.174;11.566;2023-06-24T07:31:14;2.92;;;2.60;;
25419;SDS011;13354;48.174;11.566;2023-06-24T07:33:39;3.92;;;2.58;;
25419;SDS011;13354;48.174;11.566;2023-06-24T07:36:05;4.03;;;2.55;;
25419;SDS011;13354;48.174;11.566;2023-06-24T07:38:30;2.75;;;2.50;;
25419;SDS011;13354;48.174;11.566;2023-06-24T07:40:55;2.90;;;2.28;;
25419;SDS011;13354;48.174;11.566;2023-06-24T07:43:21;2.40;;;2.15;;
25419;SDS011;13354;48.174;11.566;2023-06-24T07:45:46;3.13;;;2.40;;
25419;SDS011;13354;48.174;11.566;2023-06-24T07:48:12;2.33;;;2.13;;
25419;SDS011;13354;48.174;11.566;2023-06-24T07:50:40;4.68;;;2.47;;
25419;SDS011;13354;48.174;11.566;2023-06-24T07:53:05;3.20;;;2.40;;
25419;SDS011;13354;48.174;11.566;2023-06-24T07:55:31;3.53;;;2.60;;
25419;SDS011;13354;48.174;11.566;2023-06-24T07:57:56;3.80;;;2.70;;
25419;SDS011;13354;48.174;11.566;2023-06-24T08:00:23;5.18;;;2.60;;
25419;SDS011;13354;48.174;11.566;2023-06-24T08:02:48;3.22;;;2.72;;
25419;SDS011;13354;48.174;11.566;2023-06-24T08:05:14;4.88;;;2.70;;
25419;SDS011;13354;48.174;11.566;2023-06-24T08:07:39;2.90;;;2.65;;
25419;SDS011;13354;48.174;11.566;2023-06-24T08:10:04;3.33;;;2.75;;
25419;SDS011;13354;48.174;11.566;2023-06-24T08:12:30;4.00;;;2.90;;
25419;SDS011;13354;48.174;11.566;2023-06-24T08:14:56;3.92;;;3.13;;
25419;SDS011;13354;48.174;11.566;2023-06-24T08:17:21;3.40;;;2.47;;
25419;SDS011;13354;48.174;11.566;2023-06-24T08:19:48;3.15;;;2.83;;
25419;SDS011;13354;48.174;11.566;2023-06-24T08:22:13;3.45;;;2.65;;
25419;SDS011;13354;48.174;11.566;2023-06-24T08:24:39;5.07;;;3.20;;
25419;SDS011;13354;48.174;11.566;2023-06-24T08:27:05;4.45;;;2.83;;
25419;SDS011;13354;48.174;11.566;2023-06-24T08:29:30;3.85;;;3.42;;
25419;SDS011;13354;48.174;11.566;2023-06-24T08:31:55;4.35;;;3.13;;
25419;SDS011;13354;48.174;11.566;2023-06-24T08:34:21;3.58;;;2.92;;
25419;SDS011;13354;48.174;11.566;2023-06-24T08:36:46;3.42;;;2.78;;
25419;SDS011;13354;48.174;11.566;2023-06-24T08:39:11;4.25;;;3.20;;
25419;SDS011;13354;48.174;11.566;2023-06-24T08:41:37;3.13;;;2.83;;
25419;SDS011;13354;48.174;11.566;2023-06-24T08:44:02;4.38;;;3.30;;
25419;SDS011;13354;48.174;11.566;2023-06-24T08:46:27;5.57;;;3.20;;
25419;SDS011;13354;48.174;11.566;2023-06-24T08:51:49;3.90;;;2.92;;
25419;SDS011;13354;48.174;11.566;2023-06-24T08:54:19;3.67;;;2.92;;
25419;SDS011;13354;48.174;11.566;2023-06-24T08:56:46;4.53;;;3.25;;
25419;SDS011;13354;48.174;11.566;2023-06-24T08:59:11;3.22;;;2.92;;
25419;SDS011;13354;48.174;11.566;2023-06-24T09:01:37;4.63;;;3.45;;
25419;SDS011;13354;48.174;11.566;2023-06-24T09:04:02;3.70;;;3.28;;
25419;SDS011;13354;48.174;11.566;2023-06-24T09:06:29;4.05;;;2.90;;
25419;SDS011;13354;48.174;11.566;2023-06-24T09:08:55;3.35;;;2.90;;
25419;SDS011;13354;48.174;11.566;2023-06-24T09:11:29;6.05;;;4.90;;
25419;SDS011;13354;48.174;11.566;2023-06-24T09:13:57;5.53;;;4.35;;
25419;SDS011;13354;48.174;11.566;2023-06-24T09:16:23;4.90;;;3.70;;
25419;SDS011;13354;48.174;11.566;2023-06-24T09:18:49;4.45;;;3.50;;
25419;SDS011;13354;48.174;11.566;2023-06-24T09:21:26;4.35;;;3.35;;
25419;SDS011;13354;48.174;11.566;2023-06-24T09:23:53;4.97;;;3.55;;
25419;SDS011;13354;48.174;11.566;2023-06-24T09:26:20;5.10;;;3.65;;
25419;SDS011;13354;48.174;11.566;2023-06-24T09:28:48;4.65;;;4.05;;
25419;SDS011;13354;48.174;11.566;2023-06-24T09:31:17;4.38;;;3.70;;
25419;SDS011;13354;48.174;11.566;2023-06-24T09:33:43;4.40;;;3.50;;
25419;SDS011;13354;48.174;11.566;2023-06-24T09:36:15;4.40;;;3.80;;
25419;SDS011;13354;48.174;11.566;2023-06-24T09:38:44;4.93;;;3.72;;
25419;SDS011;13354;48.174;11.566;2023-06-24T09:41:09;4.32;;;3.20;;
25419;SDS011;13354;48.174;11.566;2023-06-24T09:43:35;5.05;;;3.80;;
25419;SDS011;13354;48.174;11.566;2023-06-24T09:46:02;5.35;;;4.53;;
25419;SDS011;13354;48.174;11.566;2023-06-24T09:48:28;5.15;;;3.70;;
25419;SDS011;13354;48.174;11.566;2023-06-24T09:50:54;4.38;;;3.78;;
25419;SDS011;13354;48.174;11.566;2023-06-24T09:53:23;4.43;;;3.55;;
25419;SDS011;13354;48.174;11.566;2023-06-24T09:55:49;5.35;;;3.72;;
25419;SDS011;13354;48.174;11.566;2023-06-24T09:58:15;4.43;;;4.00;;
25419;SDS011;13354;48.174;11.566;2023-06-24T10:00:43;4.22;;;3.83;;
25419;SDS011;13354;48.174;11.566;2023-06-24T10:03:08;4.50;;;4.03;;
25419;SDS011;13354;48.174;11.566;2023-06-24T10:05:34;4.93;;;4.03;;
25419;SDS011;13354;48.174;11.566;2023-06-24T10:08:01;4.18;;;3.30;;
25419;SDS011;13354;48.174;11.566;2023-06-24T10:10:29;4.57;;;3.47;;
25419;SDS011;13354;48.174;11.566;2023-06-24T10:12:55;4.32;;;3.17;;
25419;SDS011;13354;48.174;11.566;2023-06-24T10:15:21;5.00;;;3.40;;
25419;SDS011;13354;48.174;11.566;2023-06-24T10:17:47;5.03;;;4.05;;
25419;SDS011;13354;48.174;11.566;2023-06-24T10:20:13;4.30;;;3.90;;
25419;SDS011;13354;48.174;11.566;2023-06-24T10:22:48;5.28;;;3.88;;
25419;SDS011;13354;48.174;11.566;2023-06-24T10:25:16;5.90;;;3.30;;
25419;SDS011;13354;48.174;11.566;2023-06-24T10:27:41;4.85;;;3.70;;
25419;SDS011;13354;48.174;11.566;2023-06-24T10:30:07;5.70;;;3.40;;
25419;SDS011;13354;48.174;11.566;2023-06-24T10:32:40;3.78;;;3.15;;
25419;SDS011;13354;48.174;11.566;2023-06-24T10:35:07;5.88;;;3.05;;
25419;SDS011;13354;48.174;11.566;2023-06-24T10:37:53;5.95;;;3.40;;
25419;SDS011;13354;48.174;11.566;2023-06-24T10:40:33;3.80;;;3.03;;
25419;SDS011;13354;48.174;11.566;2023-06-24T10:45:52;4.20;;;3.00;;
25419;SDS011;13354;48.174;11.566;2023-06-24T10:48:18;4.40;;;3.10;;
25419;SDS011;13354;48.174;11.566;2023-06-24T10:50:45;4.40;;;2.90;;
25419;SDS011;13354;48.174;11.566;2023-06-24T10:53:10;5.75;;;2.85;;
25419;SDS011;13354;48.174;11.566;2023-06-24T10:55:38;3.13;;;2.60;;
25419;SDS011;13354;48.174;11.566;2023-06-24T10:58:10;3.10;;;2.80;;
25419;SDS011;13354;48.174;11.566;2023-06-24T11:00:37;4.43;;;2.65;;
25419;SDS011;13354;48.174;11.566;2023-06-24T11:03:13;4.05;;;2.60;;
25419;SDS011;13354;48.174;11.566;2023-06-24T11:05:40;3.20;;;2.65;;
25419;SDS011;13354;48.174;11.566;2023-06-24T11:08:07;3.92;;;2.70;;
25419;SDS011;13354;48.174;11.566;2023-06-24T11:10:33;3.83;;;2.65;;
25419;SDS011;13354;48.174;11.566;2023-06-24T11:13:04;3.47;;;2.80;;
25419;SDS011;13354;48.174;11.566;2023-06-24T11:15:31;3.20;;;2.90;;
25419;SDS011;13354;48.174;11.566;2023-06-24T11:17:57;3.40;;;2.78;;
25419;SDS011;13354;48.174;11.566;2023-06-24T11:20:22;3.07;;;2.30;;
25419;SDS011;13354;48.174;11.566;2023-06-24T11:22:48;3.28;;;2.50;;
25419;SDS011;13354;48.174;11.566;2023-06-24T11:25:19;3.15;;;2.85;;
25419;SDS011;13354;48.174;11.566;2023-06-24T11:27:46;3.17;;;2.85;;
25419;SDS011;13354;48.174;11.566;2023-06-24T11:30:12;2.97;;;2.75;;
25419;SDS011;13354;48.174;11.566;2023-06-24T11:32:39;4.07;;;2.90;;
25419;SDS011;13354;48.174;11.566;2023-06-24T11:35:06;3.17;;;2.40;;
25419;SDS011;13354;48.174;11.566;2023-06-24T11:37:33;3.33;;;2.92;;
25419;SDS011;13354;48.174;11.566;2023-06-24T11:40:05;4.13;;;2.58;;
25419;SDS011;13354;48.174;11.566;2023-06-24T11:42:32;2.85;;;2.50;;
25419;SDS011;13354;48.174;11.566;2023-06-24T11:45:01;3.63;;;2.80;;
25419;SDS011;13354;48.174;11.566;2023-06-24T11:47:30;3.38;;;2.40;;
25419;SDS011;13354;48.174;11.566;2023-06-24T11:49:57;2.95;;;2.38;;
25419;SDS011;13354;48.174;11.566;2023-06-24T11:55:00;3.20;;;2.70;;
25419;SDS011;13354;48.174;11.566;2023-06-24T12:00:30;3.00;;;2.70;;
25419;SDS011;13354;48.174;11.566;2023-06-24T12:02:58;3.05;;;2.38;;
25419;SDS011;13354;48.174;11.566;2023-06-24T12:05:31;3.30;;;3.00;;
25419;SDS011;13354;48.174;11.566;2023-06-24T12:07:59;3.20;;;2.85;;
25419;SDS011;13354;48.174;11.566;2023-06-24T12:10:25;3.40;;;3.10;;
25419;SDS011;13354;48.174;11.566;2023-06-24T12:12:51;4.85;;;2.85;;
25419;SDS011;13354;48.174;11.566;2023-06-24T12:15:17;3.83;;;2.50;;
25419;SDS011;13354;48.174;11.566;2023-06-24T12:17:42;3.30;;;2.97;;
25419;SDS011;13354;48.174;11.566;2023-06-24T12:20:07;3.47;;;2.83;;
25419;SDS011;13354;48.174;11.566;2023-06-24T12:22:34;2.90;;;2.63;;
25419;SDS011;13354;48.174;11.566;2023-06-24T12:25:00;3.03;;;2.70;;
25419;SDS011;13354;48.174;11.566;2023-06-24T12:27:25;3.40;;;2.67;;
25419;SDS011;13354;48.174;11.566;2023-06-24T12:29:50;3.23;;;2.73;;
25419;SDS011;13354;48.174;11.566;2023-06-24T12:32:16;3.87;;;2.80;;
25419;SDS011;13354;48.174;11.566;2023-06-24T12:34:41;3.15;;;2.85;;
25419;SDS011;13354;48.174;11.566;2023-06-24T12:37:06;3.00;;;2.80;;
25419;SDS011;13354;48.174;11.566;2023-06-24T12:39:32;3.78;;;2.95;;
25419;SDS011;13354;48.174;11.566;2023-06-24T12:41:57;4.13;;;3.00;;
25419;SDS011;13354;48.174;11.566;2023-06-24T12:44:22;2.87;;;2.60;;
25419;SDS011;13354;48.174;11.566;2023-06-24T12:46:47;3.87;;;2.90;;
25419;SDS011;13354;48.174;11.566;2023-06-24T12:49:13;3.42;;;2.90;;
25419;SDS011;13354;48.174;11.566;2023-06-24T12:51:38;4.20;;;3.08;;
25419;SDS011;13354;48.174;11.566;2023-06-24T12:54:03;3.87;;;2.90;;
25419;SDS011;13354;48.174;11.566;2023-06-24T12:56:29;4.40;;;2.92;;
25419;SDS011;13354;48.174;11.566;2023-06-24T12:58:54;3.47;;;3.17;;
25419;SDS011;13354;48.174;11.566;2023-06-24T13:01:19;5.17;;;2.90;;
25419;SDS011;13354;48.174;11.566;2023-06-24T13:03:45;3.30;;;3.00;;
25419;SDS011;13354;48.174;11.566;2023-06-24T13:06:10;2.90;;;2.70;;
25419;SDS011;13354;48.174;11.566;2023-06-24T13:08:35;3.63;;;3.07;;
25419;SDS011;13354;48.174;11.566;2023-06-24T13:11:00;3.40;;;2.90;;
25419;SDS011;13354;48.174;11.566;2023-06-24T13:13:26;3.55;;;3.20;;
25419;SDS011;13354;48.174;11.566;2023-06-24T13:15:51;3.40;;;3.10;;
25419;SDS011;13354;48.174;11.566;2023-06-24T13:18:16;3.17;;;2.77;;
25419;SDS011;13354;48.174;11.566;2023-06-24T13:20:43;3.40;;;3.05;;
25419;SDS011;13354;48.174;11.566;2023-06-24T13:23:08;2.83;;;2.63;;
25419;SDS011;13354;48.174;11.566;2023-06-24T13:25:34;3.87;;;2.73;;
25419;SDS011;13354;48.174;11.566;2023-06-24T13:27:59;3.47;;;2.78;;
25419;SDS011;13354;48.174;11.566;2023-06-24T13:30:25;3.03;;;2.70;;
25419;SDS011;13354;48.174;11.566;2023-06-24T13:32:50;5.30;;;3.13;;
25419;SDS011;13354;48.174;11.566;2023-06-24T13:35:15;4.38;;;3.10;;
25419;SDS011;13354;48.174;11.566;2023-06-24T13:37:41;3.28;;;2.95;;
25419;SDS011;13354;48.174;11.566;2023-06-24T13:40:08;4.68;;;2.92;;
25419;SDS011;13354;48.174;11.566;2023-06-24T13:42:34;4.20;;;2.80;;
25419;SDS011;13354;48.174;11.566;2023-06-24T13:44:59;2.97;;;2.60;;
25419;SDS011;13354;48.174;11.566;2023-06-24T13:47:24;3.13;;;2.83;;
25419;SDS011;13354;48.174;11.566;2023-06-24T13:49:49;3.38;;;3.08;;
25419;SDS011;13354;48.174;11.566;2023-06-24T13:52:15;3.47;;;3.03;;
25419;SDS011;13354;48.174;11.566;2023-06-24T13:54:40;3.13;;;2.78;;
25419;SDS011;13354;48.174;11.566;2023-06-24T13:57:05;4.22;;;2.90;;
25419;SDS011;13354;48.174;11.566;2023-06-24T13:59:31;3.17;;;2.70;;
25419;SDS011;13354;48.174;11.566;2023-06-24T14:01:56;3.33;;;3.00;;
25419;SDS011;13354;48.174;11.566;2023-06-24T14:04:21;4.00;;;2.87;;
25419;SDS011;13354;48.174;11.566;2023-06-24T14:06:47;3.70;;;2.30;;
25419;SDS011;13354;48.174;11.566;2023-06-24T14:09:12;4.40;;;2.93;;
25419;SDS011;13354;48.174;11.566;2023-06-24T14:11:37;3.33;;;2.85;;
25419;SDS011;13354;48.174;11.566;2023-06-24T14:14:03;3.85;;;2.88;;
25419;SDS011;13354;48.174;11.566;2023-06-24T14:16:28;3.20;;;2.90;;
25419;SDS011;13354;48.174;11.566;2023-06-24T14:18:53;3.50;;;2.95;;
25419;SDS011;13354;48.174;11.566;2023-06-24T14:21:18;3.88;;;3.33;;
25419;SDS011;13354;48.174;11.566;2023-06-24T14:23:44;4.55;;;3.63;;
25419;SDS011;13354;48.174;11.566;2023-06-24T14:26:09;5.43;;;2.97;;
25419;SDS011;13354;48.174;11.566;2023-06-24T14:28:35;2.95;;;2.65;;
25419;SDS011;13354;48.174;11.566;2023-06-24T14:31:00;4.13;;;2.67;;
25419;SDS011;13354;48.174;11.566;2023-06-24T14:33:25;4.03;;;2.90;;
25419;SDS011;13354;48.174;11.566;2023-06-24T14:35:50;4.23;;;2.80;;
25419;SDS011;13354;48.174;11.566;2023-06-24T14:38:16;4.03;;;2.95;;
25419;SDS011;13354;48.174;11.566;2023-06-24T14:40:41;3.72;;;2.50;;
25419;SDS011;13354;48.174;11.566;2023-06-24T14:43:06;2.97;;;2.60;;
25419;SDS011;13354;48.174;11.566;2023-06-24T14:45:32;3.97;;;2.60;;
25419;SDS011;13354;48.174;11.566;2023-06-24T14:47:57;5.13;;;3.03;;
25419;SDS011;13354;48.174;11.566;2023-06-24T14:50:22;3.10;;;2.90;;